Time;durP1;ratioP1;P1;durP2;ratioP2;P2;SDS_P1;SDS_P2;PMS_P1;PMS_P2;Temp;Humidity;BMP_temperature;BMP_pressure;BME280_temperature;BME280_humidity;BME280_pressure;Samples;Min_cycle;Max_cycle;Signal;HPM_P1;HPM_P2
2023/03/31 00:00:53;;;;;;;0.40;0.40;;;;;;;;;;5109491;28;20454;-67
2023/03/31 00:03:23;;;;;;;0.50;0.50;;;;;;;;;;5107752;28;20428;-67
2023/03/31 00:05:55;;;;;;;0.20;0.20;;;;;;;;;;5109499;28;20620;-67
2023/03/31 00:08:22;;;;;;;0.23;0.23;;;;;;;;;;5109859;28;20474;-67
2023/03/31 00:10:50;;;;;;;0.70;0.33;;;;;;;;;;5109665;28;20443;-67
2023/03/31 00:13:17;;;;;;;0.20;0.20;;;;;;;;;;5109560;28;20459;-67
2023/03/31 00:15:45;;;;;;;0.38;0.38;;;;;;;;;;5108160;28;20961;-67
2023/03/31 00:18:12;;;;;;;0.33;0.33;;;;;;;;;;5096931;28;20983;-67
2023/03/31 00:20:42;;;;;;;0.70;0.70;;;;;;;;;;5089072;28;20514;-65
2023/03/31 00:23:15;;;;;;;1.60;0.20;;;;;;;;;;5089168;28;20422;-66
2023/03/31 00:25:44;;;;;;;0.20;0.20;;;;;;;;;;5100930;28;20909;-66
2023/03/31 00:28:17;;;;;;;0.20;0.20;;;;;;;;;;5112670;28;20424;-66
2023/03/31 00:30:46;;;;;;;0.10;0.10;;;;;;;;;;5111075;28;20428;-66
2023/03/31 00:33:18;;;;;;;0.30;0.30;;;;;;;;;;5091378;28;20436;-65
2023/03/31 00:35:45;;;;;;;0.20;0.20;;;;;;;;;;5092011;28;20465;-66
2023/03/31 00:38:12;;;;;;;0.10;0.10;;;;;;;;;;5091724;28;20494;-66
2023/03/31 00:40:46;;;;;;;0.20;0.20;;;;;;;;;;5092210;28;20425;-66
2023/03/31 00:43:35;;;;;;;1.20;0.93;;;;;;;;;;5092219;28;20429;-66
2023/03/31 00:46:18;;;;;;;0.40;0.40;;;;;;;;;;5092247;28;20503;-66
2023/03/31 00:48:51;;;;;;;0.28;0.28;;;;;;;;;;5092114;28;20464;-66
2023/03/31 00:51:20;;;;;;;0.22;0.22;;;;;;;;;;5091971;28;20425;-65
2023/03/31 00:53:50;;;;;;;0.50;0.50;;;;;;;;;;5091576;28;20429;-65
2023/03/31 00:56:26;;;;;;;0.60;0.50;;;;;;;;;;5090844;28;20837;-65
2023/03/31 00:58:56;;;;;;;0.20;0.20;;;;;;;;;;5100931;28;20422;-65
2023/03/31 01:01:31;;;;;;;0.40;0.30;;;;;;;;;;5111999;28;20489;-65
2023/03/31 01:03:58;;;;;;;0.10;0.10;;;;;;;;;;5099114;28;20509;-65
2023/03/31 01:06:33;;;;;;;0.20;0.20;;;;;;;;;;5091791;28;20916;-65
2023/03/31 01:09:05;;;;;;;0.73;0.25;;;;;;;;;;5090643;28;20449;-65
2023/03/31 01:11:34;;;;;;;0.13;0.13;;;;;;;;;;5091761;28;20547;-65
2023/03/31 01:14:03;;;;;;;1.20;0.47;;;;;;;;;;5089624;28;20438;-66
2023/03/31 01:16:30;;;;;;;0.30;0.30;;;;;;;;;;5125596;27;20422;-65
2023/03/31 01:18:57;;;;;;;0.20;0.20;;;;;;;;;;5111952;28;20432;-66
2023/03/31 01:21:29;;;;;;;0.25;0.25;;;;;;;;;;5111972;28;20424;-66
2023/03/31 01:24:25;;;;;;;0.20;0.20;;;;;;;;;;5101635;28;20449;-65
2023/03/31 01:26:58;;;;;;;0.35;0.30;;;;;;;;;;5091729;28;20418;-65
2023/03/31 01:29:40;;;;;;;0.13;0.13;;;;;;;;;;5091598;28;20465;-65
2023/03/31 01:32:25;;;;;;;0.13;0.13;;;;;;;;;;5091593;28;20597;-65
2023/03/31 01:35:13;;;;;;;0.50;0.30;;;;;;;;;;5090919;28;20429;-65
2023/03/31 01:37:49;;;;;;;1.80;0.57;;;;;;;;;;5086706;28;20430;-65
2023/03/31 01:40:25;;;;;;;0.30;0.30;;;;;;;;;;5096018;28;20428;-65
2023/03/31 01:43:02;;;;;;;0.30;0.30;;;;;;;;;;5111834;27;20435;-65
2023/03/31 01:45:38;;;;;;;0.20;0.20;;;;;;;;;;5103563;28;20457;-65
2023/03/31 01:48:40;;;;;;;0.30;0.30;;;;;;;;;;5091326;28;20437;-66
2023/03/31 01:51:08;;;;;;;0.22;0.22;;;;;;;;;;5078556;28;20440;-67
2023/03/31 01:53:35;;;;;;;0.10;0.10;;;;;;;;;;5091316;28;20429;-67
2023/03/31 01:56:23;;;;;;;0.30;0.30;;;;;;;;;;5090090;28;20428;-67
2023/03/31 01:58:51;;;;;;;0.20;0.20;;;;;;;;;;5089834;28;20448;-67
2023/03/31 02:01:21;;;;;;;0.60;0.43;;;;;;;;;;5097149;28;20485;-67
2023/03/31 02:03:57;;;;;;;0.30;0.30;;;;;;;;;;5110611;28;20424;-67
2023/03/31 02:06:28;;;;;;;0.22;0.22;;;;;;;;;;5111332;28;20519;-67
2023/03/31 02:08:58;;;;;;;0.40;0.30;;;;;;;;;;5111249;28;20459;-67
2023/03/31 02:11:26;;;;;;;0.20;0.20;;;;;;;;;;5108548;28;20522;-67
2023/03/31 02:13:54;;;;;;;0.30;0.30;;;;;;;;;;5109277;28;20918;-67
2023/03/31 02:16:23;;;;;;;0.45;0.28;;;;;;;;;;5090618;28;20481;-67
2023/03/31 02:19:01;;;;;;;0.25;0.25;;;;;;;;;;5100724;28;20458;-67
2023/03/31 02:21:35;;;;;;;0.80;0.65;;;;;;;;;;5110723;28;20519;-67
2023/03/31 02:24:05;;;;;;;0.20;0.20;;;;;;;;;;5109448;28;20456;-66
2023/03/31 02:26:36;;;;;;;0.30;0.30;;;;;;;;;;5110986;28;20444;-67
2023/03/31 02:29:04;;;;;;;0.30;0.30;;;;;;;;;;5094049;28;20971;-66
2023/03/31 02:31:48;;;;;;;0.10;0.10;;;;;;;;;;5090526;28;20448;-66
2023/03/31 02:34:15;;;;;;;2.03;0.30;;;;;;;;;;5089839;28;20930;-67
2023/03/31 02:36:44;;;;;;;0.60;0.60;;;;;;;;;;5090250;28;20521;-67
2023/03/31 02:39:13;;;;;;;0.30;0.20;;;;;;;;;;5090199;28;20862;-68
2023/03/31 02:41:41;;;;;;;0.20;0.20;;;;;;;;;;5089982;28;20430;-68
2023/03/31 02:44:11;;;;;;;0.20;0.20;;;;;;;;;;5088785;28;20425;-68
2023/03/31 02:46:39;;;;;;;1.00;0.60;;;;;;;;;;5090484;28;20421;-68
2023/03/31 02:49:08;;;;;;;0.30;0.30;;;;;;;;;;5089877;28;20456;-66
2023/03/31 02:52:00;;;;;;;0.10;0.10;;;;;;;;;;5089039;28;20426;-66
2023/03/31 02:54:50;;;;;;;0.27;0.27;;;;;;;;;;5089625;28;20480;-66
2023/03/31 02:57:20;;;;;;;0.70;0.40;;;;;;;;;;5089859;28;20430;-66
2023/03/31 03:00:15;;;;;;;1.73;0.20;;;;;;;;;;5089186;28;20478;-67
2023/03/31 03:02:57;;;;;;;2.13;0.27;;;;;;;;;;5109814;28;20427;-67
2023/03/31 03:05:36;;;;;;;0.17;0.17;;;;;;;;;;5109595;28;20425;-67
2023/03/31 03:08:16;;;;;;;0.30;0.13;;;;;;;;;;5108838;28;20428;-67
2023/03/31 03:10:43;;;;;;;0.40;0.40;;;;;;;;;;5099274;28;20843;-67
2023/03/31 03:13:28;;;;;;;0.20;0.20;;;;;;;;;;5094915;28;20420;-67
2023/03/31 03:16:04;;;;;;;0.20;0.20;;;;;;;;;;5104145;28;20427;-66
2023/03/31 03:18:32;;;;;;;0.37;0.37;;;;;;;;;;5118725;27;20428;-65
2023/03/31 03:20:59;;;;;;;0.30;0.30;;;;;;;;;;5108504;28;20505;-66
2023/03/31 03:23:26;;;;;;;0.20;0.20;;;;;;;;;;5110050;28;21001;-66
2023/03/31 03:25:57;;;;;;;0.32;0.32;;;;;;;;;;5109656;28;20420;-65
2023/03/31 03:28:24;;;;;;;1.55;0.55;;;;;;;;;;5110027;28;20481;-65
2023/03/31 03:30:52;;;;;;;0.40;0.40;;;;;;;;;;5107983;28;20806;-65
2023/03/31 03:33:23;;;;;;;2.60;0.60;;;;;;;;;;5109370;28;20431;-66
2023/03/31 03:35:50;;;;;;;0.10;0.10;;;;;;;;;;5108217;28;20920;-66
2023/03/31 03:38:18;;;;;;;0.17;0.17;;;;;;;;;;5109895;28;20428;-66
2023/03/31 03:40:45;;;;;;;0.60;0.35;;;;;;;;;;5109780;28;20435;-66
2023/03/31 03:43:16;;;;;;;0.20;0.20;;;;;;;;;;5109858;27;20464;-66
2023/03/31 03:45:47;;;;;;;1.55;0.55;;;;;;;;;;5109219;28;20903;-66
2023/03/31 03:48:14;;;;;;;0.20;0.20;;;;;;;;;;5107389;28;20447;-66
2023/03/31 03:50:41;;;;;;;2.50;0.40;;;;;;;;;;5109427;28;20507;-66
2023/03/31 03:53:10;;;;;;;0.40;0.40;;;;;;;;;;5121725;27;20457;-66
2023/03/31 03:55:40;;;;;;;0.38;0.38;;;;;;;;;;5129578;27;20430;-66
2023/03/31 03:58:07;;;;;;;0.30;0.30;;;;;;;;;;5130326;27;21091;-66
2023/03/31 04:00:36;;;;;;;0.20;0.20;;;;;;;;;;5130628;27;20430;-66
2023/03/31 04:03:03;;;;;;;1.90;0.40;;;;;;;;;;5133052;27;20426;-67
2023/03/31 04:05:34;;;;;;;0.30;0.30;;;;;;;;;;5106583;27;20420;-66
2023/03/31 04:08:01;;;;;;;1.38;0.28;;;;;;;;;;5113552;28;21005;-66
2023/03/31 04:10:28;;;;;;;1.10;0.57;;;;;;;;;;5113428;28;20431;-66
2023/03/31 04:12:58;;;;;;;0.20;0.20;;;;;;;;;;5098452;28;20430;-66
2023/03/31 04:15:26;;;;;;;0.60;0.38;;;;;;;;;;5092799;28;20487;-66
2023/03/31 04:17:53;;;;;;;0.30;0.20;;;;;;;;;;5092768;28;20919;-66
2023/03/31 04:20:21;;;;;;;0.90;0.35;;;;;;;;;;5100351;28;20424;-66
2023/03/31 04:22:49;;;;;;;0.30;0.30;;;;;;;;;;5112937;28;20510;-66
2023/03/31 04:25:17;;;;;;;0.45;0.45;;;;;;;;;;5097522;28;20453;-66
2023/03/31 04:27:54;;;;;;;1.90;0.52;;;;;;;;;;5092652;28;20432;-66
2023/03/31 04:30:21;;;;;;;0.20;0.20;;;;;;;;;;5092599;28;20811;-66
2023/03/31 04:32:55;;;;;;;0.30;0.30;;;;;;;;;;5092129;28;20520;-66
2023/03/31 04:35:23;;;;;;;1.90;0.40;;;;;;;;;;5092251;28;20494;-66
2023/03/31 04:37:57;;;;;;;0.10;0.10;;;;;;;;;;5092237;28;20855;-66
2023/03/31 04:40:25;;;;;;;0.15;0.15;;;;;;;;;;5091379;28;20453;-66
2023/03/31 04:42:54;;;;;;;0.20;0.20;;;;;;;;;;5092480;28;20512;-66
2023/03/31 04:45:21;;;;;;;0.10;0.10;;;;;;;;;;5091330;28;20430;-66
2023/03/31 04:47:48;;;;;;;2.50;0.60;;;;;;;;;;5092048;28;20426;-66
2023/03/31 04:50:15;;;;;;;1.70;0.65;;;;;;;;;;5091408;28;20754;-66
2023/03/31 04:52:43;;;;;;;0.50;0.30;;;;;;;;;;5090849;28;20421;-66
2023/03/31 04:55:10;;;;;;;0.30;0.20;;;;;;;;;;5091891;28;20816;-66
2023/03/31 04:57:37;;;;;;;0.40;0.20;;;;;;;;;;5090740;28;20426;-66
2023/03/31 05:00:08;;;;;;;0.20;0.20;;;;;;;;;;5092356;28;20437;-66
2023/03/31 05:02:36;;;;;;;0.70;0.30;;;;;;;;;;5091968;28;20528;-67
2023/03/31 05:05:04;;;;;;;0.30;0.30;;;;;;;;;;5091490;28;20425;-67
2023/03/31 05:07:31;;;;;;;0.20;0.20;;;;;;;;;;5091766;28;20424;-67
2023/03/31 05:09:59;;;;;;;0.30;0.28;;;;;;;;;;5091985;28;20430;-65
2023/03/31 05:12:26;;;;;;;4.40;0.60;;;;;;;;;;5089566;28;20429;-66
2023/03/31 05:14:53;;;;;;;0.30;0.30;;;;;;;;;;5091257;28;20428;-66
2023/03/31 05:17:23;;;;;;;0.38;0.38;;;;;;;;;;5091962;28;20426;-66
2023/03/31 05:19:50;;;;;;;1.00;0.30;;;;;;;;;;5096134;28;20461;-66
2023/03/31 05:22:19;;;;;;;3.95;0.32;;;;;;;;;;5111986;28;20428;-66
2023/03/31 05:24:47;;;;;;;0.17;0.17;;;;;;;;;;5111870;28;20420;-66
2023/03/31 05:27:15;;;;;;;0.15;0.15;;;;;;;;;;5095000;28;20908;-66
2023/03/31 05:29:42;;;;;;;0.10;0.10;;;;;;;;;;5090148;28;20429;-66
2023/03/31 05:32:10;;;;;;;0.90;0.47;;;;;;;;;;5113456;27;20897;-66
2023/03/31 05:34:37;;;;;;;0.25;0.10;;;;;;;;;;5130244;27;20448;-66
2023/03/31 05:37:04;;;;;;;0.30;0.30;;;;;;;;;;5132976;27;20430;-66
2023/03/31 05:39:31;;;;;;;0.20;0.20;;;;;;;;;;5123061;27;20528;-67
2023/03/31 05:42:02;;;;;;;0.20;0.20;;;;;;;;;;5110974;28;20428;-66
2023/03/31 05:44:29;;;;;;;0.15;0.15;;;;;;;;;;5111417;28;20420;-67
2023/03/31 05:46:56;;;;;;;0.90;0.55;;;;;;;;;;5109833;28;20424;-67
2023/03/31 05:49:24;;;;;;;0.65;0.20;;;;;;;;;;5111742;28;20424;-67
2023/03/31 05:51:52;;;;;;;0.30;0.30;;;;;;;;;;5111583;28;20432;-67
2023/03/31 05:54:22;;;;;;;0.40;0.30;;;;;;;;;;5111252;28;20747;-67
2023/03/31 05:56:49;;;;;;;0.30;0.30;;;;;;;;;;5109345;28;20420;-67
2023/03/31 05:59:16;;;;;;;0.10;0.10;;;;;;;;;;5111484;28;20455;-67
2023/03/31 06:01:46;;;;;;;0.30;0.30;;;;;;;;;;5104726;28;20521;-67
2023/03/31 06:04:17;;;;;;;0.20;0.10;;;;;;;;;;5090694;28;20425;-67
2023/03/31 06:06:49;;;;;;;0.10;0.10;;;;;;;;;;5091241;28;20451;-67
2023/03/31 06:09:20;;;;;;;0.10;0.10;;;;;;;;;;5098567;28;20990;-67
2023/03/31 06:11:47;;;;;;;0.50;0.30;;;;;;;;;;5106093;28;20455;-67
2023/03/31 06:14:16;;;;;;;0.10;0.10;;;;;;;;;;5089602;28;20422;-67
2023/03/31 06:16:46;;;;;;;0.28;0.28;;;;;;;;;;5090828;28;20793;-67
2023/03/31 06:19:15;;;;;;;2.00;0.40;;;;;;;;;;5089102;28;20424;-67
2023/03/31 06:21:42;;;;;;;0.15;0.15;;;;;;;;;;5090170;28;20437;-67
2023/03/31 06:24:10;;;;;;;0.10;0.10;;;;;;;;;;5089794;28;20846;-67
2023/03/31 06:26:37;;;;;;;0.10;0.10;;;;;;;;;;5090690;28;20441;-67
2023/03/31 06:29:04;;;;;;;0.20;0.20;;;;;;;;;;5089922;28;21074;-67
2023/03/31 06:31:31;;;;;;;0.13;0.13;;;;;;;;;;5090608;28;20428;-67
2023/03/31 06:34:00;;;;;;;0.20;0.20;;;;;;;;;;5089819;28;20457;-67
2023/03/31 06:36:27;;;;;;;0.30;0.30;;;;;;;;;;5090176;28;20456;-67
2023/03/31 06:38:54;;;;;;;1.20;0.27;;;;;;;;;;5090071;28;20434;-67
2023/03/31 06:41:22;;;;;;;1.00;0.30;;;;;;;;;;5090390;28;20453;-67
2023/03/31 06:43:51;;;;;;;0.10;0.10;;;;;;;;;;5088940;28;20510;-67
2023/03/31 06:46:18;;;;;;;1.00;0.20;;;;;;;;;;5090234;28;20428;-67
2023/03/31 06:48:45;;;;;;;1.30;0.50;;;;;;;;;;5090361;28;20461;-67
2023/03/31 06:51:13;;;;;;;1.97;1.33;;;;;;;;;;5088751;28;20540;-67
2023/03/31 06:53:40;;;;;;;1.50;0.50;;;;;;;;;;5089967;28;20897;-66
2023/03/31 06:56:07;;;;;;;0.40;0.40;;;;;;;;;;5089811;28;20421;-66
2023/03/31 06:58:35;;;;;;;0.28;0.28;;;;;;;;;;5089852;28;20440;-67
2023/03/31 07:01:05;;;;;;;0.30;0.25;;;;;;;;;;5095693;28;20526;-67
2023/03/31 07:03:33;;;;;;;0.30;0.30;;;;;;;;;;5110215;28;20928;-66
2023/03/31 07:06:00;;;;;;;0.35;0.35;;;;;;;;;;5097964;28;20422;-66
2023/03/31 07:08:30;;;;;;;0.30;0.30;;;;;;;;;;5089670;28;20425;-67
2023/03/31 07:10:59;;;;;;;0.32;0.32;;;;;;;;;;5088697;28;20433;-67
2023/03/31 07:13:27;;;;;;;0.40;0.40;;;;;;;;;;5089311;28;20426;-66
2023/03/31 07:15:55;;;;;;;1.63;0.52;;;;;;;;;;5089371;28;20475;-67
2023/03/31 07:18:31;;;;;;;0.20;0.20;;;;;;;;;;5088539;28;20517;-67
2023/03/31 07:21:01;;;;;;;0.93;0.60;;;;;;;;;;5088944;28;20430;-67
2023/03/31 07:23:28;;;;;;;0.30;0.30;;;;;;;;;;5088220;28;20990;-67
2023/03/31 07:26:00;;;;;;;0.28;0.28;;;;;;;;;;5089238;28;20429;-67
2023/03/31 07:28:29;;;;;;;0.60;0.60;;;;;;;;;;5089518;28;20418;-67
2023/03/31 07:30:57;;;;;;;0.60;0.60;;;;;;;;;;5089453;28;20885;-67
2023/03/31 07:33:24;;;;;;;0.70;0.40;;;;;;;;;;5089790;28;20432;-67
2023/03/31 07:35:51;;;;;;;0.40;0.40;;;;;;;;;;5090845;28;20422;-68
2023/03/31 07:38:36;;;;;;;0.70;0.70;;;;;;;;;;5093919;28;20914;-68
2023/03/31 07:41:03;;;;;;;0.50;0.50;;;;;;;;;;5094111;28;20486;-68
2023/03/31 07:43:35;;;;;;;0.20;0.20;;;;;;;;;;5092409;28;20924;-68
2023/03/31 07:46:04;;;;;;;0.50;0.50;;;;;;;;;;5092334;28;20565;-69
2023/03/31 07:48:32;;;;;;;0.90;0.90;;;;;;;;;;5113132;28;20424;-68
2023/03/31 07:51:00;;;;;;;1.40;0.68;;;;;;;;;;5113174;27;20435;-67
2023/03/31 07:53:30;;;;;;;1.50;0.70;;;;;;;;;;5110281;28;20428;-67
2023/03/31 07:56:00;;;;;;;0.60;0.60;;;;;;;;;;5113140;28;20445;-67
2023/03/31 07:58:27;;;;;;;0.17;0.17;;;;;;;;;;5108969;28;20430;-67
2023/03/31 08:00:55;;;;;;;0.95;0.65;;;;;;;;;;5093488;28;20430;-67
2023/03/31 08:03:24;;;;;;;1.37;0.60;;;;;;;;;;5093368;28;20426;-67
2023/03/31 08:05:51;;;;;;;0.40;0.40;;;;;;;;;;5091739;28;20433;-68
2023/03/31 08:08:19;;;;;;;0.70;0.50;;;;;;;;;;5092847;28;20433;-67
2023/03/31 08:10:50;;;;;;;0.77;0.77;;;;;;;;;;5093297;28;20924;-67
2023/03/31 08:13:20;;;;;;;5.68;0.60;;;;;;;;;;5092892;28;20451;-67
2023/03/31 08:15:51;;;;;;;1.02;1.02;;;;;;;;;;5090359;28;20970;-67
2023/03/31 08:18:20;;;;;;;0.47;0.47;;;;;;;;;;5092742;28;20432;-66
2023/03/31 08:20:48;;;;;;;1.10;0.90;;;;;;;;;;5092199;28;20436;-67
2023/03/31 08:23:15;;;;;;;1.05;0.40;;;;;;;;;;5092823;28;20425;-66
2023/03/31 08:25:46;;;;;;;0.70;0.70;;;;;;;;;;5092283;28;20517;-66
2023/03/31 08:28:16;;;;;;;4.00;0.90;;;;;;;;;;5110290;28;20551;-66
2023/03/31 08:30:43;;;;;;;0.53;0.53;;;;;;;;;;5113145;28;20423;-66
2023/03/31 08:33:13;;;;;;;0.73;0.70;;;;;;;;;;5112888;28;20450;-66
2023/03/31 08:35:40;;;;;;;2.00;0.60;;;;;;;;;;5107784;28;20433;-67
2023/03/31 08:38:07;;;;;;;0.40;0.40;;;;;;;;;;5092551;28;20433;-67
2023/03/31 08:40:41;;;;;;;0.47;0.47;;;;;;;;;;5091171;28;20436;-66
2023/03/31 08:43:12;;;;;;;0.25;0.25;;;;;;;;;;5092582;28;20781;-66
2023/03/31 08:45:41;;;;;;;0.50;0.50;;;;;;;;;;5092124;28;20418;-66
2023/03/31 08:48:11;;;;;;;0.50;0.50;;;;;;;;;;5091651;28;20488;-66
2023/03/31 08:50:42;;;;;;;0.20;0.20;;;;;;;;;;5092528;28;20434;-66
2023/03/31 08:53:18;;;;;;;0.30;0.30;;;;;;;;;;5092174;28;20433;-66
2023/03/31 08:55:49;;;;;;;0.40;0.40;;;;;;;;;;5107504;28;20434;-66
2023/03/31 08:58:35;;;;;;;2.40;0.40;;;;;;;;;;5112365;28;20580;-66
2023/03/31 09:01:21;;;;;;;2.30;0.50;;;;;;;;;;5099788;28;20466;-66
2023/03/31 09:04:07;;;;;;;4.70;0.47;;;;;;;;;;5091269;28;20428;-67
2023/03/31 09:06:46;;;;;;;0.32;0.32;;;;;;;;;;5091307;28;20852;-67
2023/03/31 09:09:24;;;;;;;0.40;0.40;;;;;;;;;;5089571;28;20421;-66
2023/03/31 09:11:54;;;;;;;0.37;0.37;;;;;;;;;;5091678;28;20421;-66
2023/03/31 09:14:24;;;;;;;0.30;0.30;;;;;;;;;;5091438;28;20791;-66
2023/03/31 09:16:57;;;;;;;0.60;0.30;;;;;;;;;;5091885;28;20425;-67
2023/03/31 09:19:29;;;;;;;0.50;0.50;;;;;;;;;;5091519;28;20552;-66
2023/03/31 09:22:00;;;;;;;0.13;0.13;;;;;;;;;;5091529;28;20430;-68
2023/03/31 09:24:30;;;;;;;0.30;0.30;;;;;;;;;;5089567;28;20421;-68
2023/03/31 09:27:06;;;;;;;2.63;0.32;;;;;;;;;;5091333;28;20437;-68
2023/03/31 09:29:39;;;;;;;0.75;0.75;;;;;;;;;;5090303;28;20514;-68
2023/03/31 09:32:17;;;;;;;0.80;0.70;;;;;;;;;;5091647;28;20429;-68
2023/03/31 09:34:50;;;;;;;0.38;0.38;;;;;;;;;;5090013;28;20460;-68
2023/03/31 09:37:17;;;;;;;1.63;0.60;;;;;;;;;;5090961;28;20471;-68
2023/03/31 09:39:47;;;;;;;0.40;0.40;;;;;;;;;;5091135;28;20508;-67
2023/03/31 09:42:19;;;;;;;0.30;0.30;;;;;;;;;;5091105;28;20469;-66
2023/03/31 09:44:51;;;;;;;0.15;0.15;;;;;;;;;;5090707;28;20426;-66
2023/03/31 09:47:31;;;;;;;0.40;0.40;;;;;;;;;;5090976;28;20444;-68
2023/03/31 09:50:00;;;;;;;0.50;0.50;;;;;;;;;;5091011;28;20453;-68
2023/03/31 09:52:32;;;;;;;0.30;0.30;;;;;;;;;;5091161;28;20425;-68
2023/03/31 09:55:04;;;;;;;0.47;0.47;;;;;;;;;;5090104;28;20517;-68
2023/03/31 09:57:35;;;;;;;1.40;0.50;;;;;;;;;;5090298;28;20440;-68
2023/03/31 10:00:23;;;;;;;0.52;0.52;;;;;;;;;;5090635;28;20434;-68
2023/03/31 10:02:50;;;;;;;1.07;0.37;;;;;;;;;;5091671;28;20438;-68
2023/03/31 10:05:21;;;;;;;0.90;0.40;;;;;;;;;;5110705;28;20485;-69
2023/03/31 10:07:48;;;;;;;0.50;0.50;;;;;;;;;;5108488;28;20489;-67
2023/03/31 10:10:26;;;;;;;1.70;0.77;;;;;;;;;;5110977;28;20422;-68
2023/03/31 10:12:55;;;;;;;1.10;0.43;;;;;;;;;;5111155;28;20420;-68
2023/03/31 10:15:25;;;;;;;0.30;0.30;;;;;;;;;;5094966;28;20429;-68
2023/03/31 10:17:53;;;;;;;0.60;0.60;;;;;;;;;;5090850;28;20436;-67
2023/03/31 10:20:37;;;;;;;0.30;0.30;;;;;;;;;;5089729;28;20773;-68
2023/03/31 10:23:14;;;;;;;0.43;0.43;;;;;;;;;;5096158;28;20909;-68
2023/03/31 10:25:41;;;;;;;0.20;0.20;;;;;;;;;;5104872;28;20786;-68
2023/03/31 10:28:15;;;;;;;0.10;0.10;;;;;;;;;;5090343;28;20455;-68
2023/03/31 10:30:46;;;;;;;0.38;0.38;;;;;;;;;;5090441;28;20426;-67
2023/03/31 10:33:16;;;;;;;0.60;0.60;;;;;;;;;;5090416;28;20437;-68
2023/03/31 10:35:53;;;;;;;0.20;0.20;;;;;;;;;;5091950;28;20750;-68
2023/03/31 10:38:28;;;;;;;0.10;0.10;;;;;;;;;;5090020;28;20421;-68
2023/03/31 10:40:56;;;;;;;0.30;0.30;;;;;;;;;;5090626;28;20445;-67
2023/03/31 10:43:38;;;;;;;0.70;0.40;;;;;;;;;;5101072;28;20435;-68
2023/03/31 10:46:05;;;;;;;0.10;0.10;;;;;;;;;;5110044;28;21059;-68
2023/03/31 10:48:34;;;;;;;0.30;0.30;;;;;;;;;;5107325;28;20926;-68
2023/03/31 10:51:05;;;;;;;1.10;0.30;;;;;;;;;;5110093;28;20420;-68
2023/03/31 10:53:40;;;;;;;0.22;0.22;;;;;;;;;;5109074;28;20907;-69
2023/03/31 10:56:08;;;;;;;0.30;0.30;;;;;;;;;;5109937;28;21061;-68
2023/03/31 10:58:41;;;;;;;0.30;0.30;;;;;;;;;;5110215;28;20424;-67
2023/03/31 11:01:42;;;;;;;1.70;0.50;;;;;;;;;;5091039;28;20426;-67
2023/03/31 11:04:14;;;;;;;0.20;0.20;;;;;;;;;;5089274;28;20426;-67
2023/03/31 11:06:44;;;;;;;0.38;0.38;;;;;;;;;;5089697;28;20433;-67
2023/03/31 11:09:19;;;;;;;0.38;0.38;;;;;;;;;;5089084;28;20483;-66
2023/03/31 11:11:48;;;;;;;1.08;0.50;;;;;;;;;;5089489;28;20430;-67
2023/03/31 11:14:21;;;;;;;1.20;0.60;;;;;;;;;;5088096;28;21110;-67
2023/03/31 11:16:53;;;;;;;0.30;0.30;;;;;;;;;;5089751;28;20449;-67
2023/03/31 11:19:29;;;;;;;0.80;0.40;;;;;;;;;;5089230;28;20418;-67
2023/03/31 11:22:09;;;;;;;0.70;0.50;;;;;;;;;;5089792;28;20426;-66
2023/03/31 11:24:36;;;;;;;0.63;0.57;;;;;;;;;;5089317;28;20429;-67
2023/03/31 11:27:03;;;;;;;1.80;0.77;;;;;;;;;;5089486;28;20422;-67
2023/03/31 11:29:45;;;;;;;0.30;0.30;;;;;;;;;;5089412;28;20421;-66
2023/03/31 11:32:18;;;;;;;0.63;0.50;;;;;;;;;;5089085;28;20428;-67
2023/03/31 11:34:57;;;;;;;0.65;0.40;;;;;;;;;;5088787;28;20433;-66
2023/03/31 11:37:30;;;;;;;0.70;0.30;;;;;;;;;;5089418;28;20433;-66
2023/03/31 11:40:09;;;;;;;2.70;0.50;;;;;;;;;;5089305;28;20437;-66
2023/03/31 11:42:41;;;;;;;0.80;0.60;;;;;;;;;;5089276;28;20429;-66
2023/03/31 11:45:21;;;;;;;1.00;0.60;;;;;;;;;;5088913;28;20433;-66
2023/03/31 11:47:50;;;;;;;0.90;0.50;;;;;;;;;;5088685;28;20426;-65
2023/03/31 11:50:26;;;;;;;0.65;0.52;;;;;;;;;;5089561;28;20550;-66
2023/03/31 11:52:56;;;;;;;2.43;0.53;;;;;;;;;;5089353;28;21102;-66
2023/03/31 11:55:25;;;;;;;1.75;0.38;;;;;;;;;;5087799;28;20433;-66
2023/03/31 11:58:04;;;;;;;0.50;0.50;;;;;;;;;;5088911;28;20441;-66
2023/03/31 12:00:37;;;;;;;1.02;1.02;;;;;;;;;;5088562;28;20520;-65
2023/03/31 12:03:04;;;;;;;1.00;0.40;;;;;;;;;;5088093;28;20887;-67
2023/03/31 12:05:33;;;;;;;6.10;0.68;;;;;;;;;;5087522;28;20494;-66
2023/03/31 12:08:00;;;;;;;2.10;0.40;;;;;;;;;;5088899;28;20429;-66
2023/03/31 12:10:37;;;;;;;0.55;0.28;;;;;;;;;;5089413;28;20418;-67
2023/03/31 12:13:08;;;;;;;3.33;0.55;;;;;;;;;;5089297;28;20457;-66
2023/03/31 12:15:47;;;;;;;0.85;0.57;;;;;;;;;;5089153;28;20444;-66
2023/03/31 12:18:25;;;;;;;0.50;0.50;;;;;;;;;;5089217;28;20430;-67
2023/03/31 12:20:53;;;;;;;1.13;0.35;;;;;;;;;;5088988;28;20772;-66
2023/03/31 12:23:25;;;;;;;0.47;0.47;;;;;;;;;;5092573;28;20517;-66
2023/03/31 12:26:08;;;;;;;1.10;0.45;;;;;;;;;;5092221;28;20830;-66
2023/03/31 12:28:37;;;;;;;1.05;0.35;;;;;;;;;;5092679;28;20430;-66
2023/03/31 12:31:05;;;;;;;0.85;0.50;;;;;;;;;;5102943;27;20440;-66
2023/03/31 12:33:41;;;;;;;1.30;0.70;;;;;;;;;;5124985;27;20470;-66
2023/03/31 12:36:20;;;;;;;1.15;0.70;;;;;;;;;;5118512;27;20781;-66
2023/03/31 12:38:57;;;;;;;1.80;0.30;;;;;;;;;;5092450;28;20421;-66
2023/03/31 12:41:27;;;;;;;0.95;0.80;;;;;;;;;;5092089;28;20422;-66
2023/03/31 12:44:00;;;;;;;0.55;0.55;;;;;;;;;;5092173;28;20433;-66
2023/03/31 12:46:28;;;;;;;0.30;0.30;;;;;;;;;;5092420;28;20499;-66
2023/03/31 12:49:22;;;;;;;1.00;0.32;;;;;;;;;;5091393;28;20859;-65
2023/03/31 12:51:55;;;;;;;0.90;0.60;;;;;;;;;;5092047;28;20434;-66
2023/03/31 12:54:41;;;;;;;0.80;0.68;;;;;;;;;;5096829;28;20424;-66
2023/03/31 12:57:08;;;;;;;0.30;0.20;;;;;;;;;;5112747;28;20428;-66
2023/03/31 12:59:40;;;;;;;2.08;0.40;;;;;;;;;;5102696;28;20515;-66
2023/03/31 13:02:14;;;;;;;0.27;0.27;;;;;;;;;;5112433;28;20436;-66
2023/03/31 13:04:42;;;;;;;4.20;0.30;;;;;;;;;;5094489;28;20770;-66
2023/03/31 13:07:13;;;;;;;0.50;0.25;;;;;;;;;;5092209;28;20424;-67
2023/03/31 13:09:57;;;;;;;0.50;0.35;;;;;;;;;;5092412;28;20505;-66
2023/03/31 13:12:26;;;;;;;0.57;0.28;;;;;;;;;;5091782;28;20428;-66
2023/03/31 13:14:58;;;;;;;0.60;0.50;;;;;;;;;;5112763;27;20455;-66
2023/03/31 13:17:35;;;;;;;0.40;0.30;;;;;;;;;;5128651;27;20414;-65
2023/03/31 13:20:26;;;;;;;0.10;0.10;;;15.70;99.90;;;;;;5132899;27;20422;-65
2023/03/31 13:23:04;;;;;;;0.20;0.20;;;;;;;;;;5132544;27;20537;-65
2023/03/31 13:25:43;;;;;;;0.30;0.30;;;;;;;;;;5093329;27;20433;-66
2023/03/31 13:28:16;;;;;;;0.30;0.30;;;;;;;;;;5091391;28;20863;-65
2023/03/31 13:30:46;;;;;;;0.10;0.10;;;;;;;;;;5111778;27;20415;-65
2023/03/31 13:33:16;;;;;;;0.10;0.10;;;;;;;;;;5126033;27;20418;-66
2023/03/31 13:35:46;;;;;;;0.30;0.30;;;;;;;;;;5132348;27;20423;-66
2023/03/31 13:38:37;;;;;;;0.10;0.10;;;;;;;;;;5132175;27;20961;-66
2023/03/31 13:41:13;;;;;;;0.20;0.20;;;;;;;;;;5085876;27;20422;-67
2023/03/31 13:43:59;;;;;;;0.10;0.10;;;;;;;;;;5113026;27;20535;-67
2023/03/31 13:46:42;;;;;;;0.20;0.20;;;;;;;;;;5097006;28;20456;-66
2023/03/31 13:49:28;;;;;;;0.15;0.15;;;;;;;;;;5091154;28;20429;-66
2023/03/31 13:51:59;;;;;;;0.10;0.10;;;;;;;;;;5099533;28;20519;-66
2023/03/31 13:54:32;;;;;;;0.20;0.20;;;;;;;;;;5109922;28;20427;-66
2023/03/31 13:57:07;;;;;;;0.17;0.17;;;;;;;;;;5111838;28;20424;-67
2023/03/31 13:59:57;;;;;;;0.10;0.10;;;;;;;;;;5091519;28;20781;-67
2023/03/31 14:02:36;;;;;;;0.10;0.10;;;;;;;;;;5090159;28;20769;-67
2023/03/31 14:05:03;;;;;;;0.20;0.20;;;;;;;;;;5090651;28;20426;-64
2023/03/31 14:07:37;;;;;;;0.10;0.10;;;;;;;;;;5089242;28;20904;-64
2023/03/31 14:10:06;;;;;;;0.20;0.20;;;;;;;;;;5090709;28;20432;-64
2023/03/31 14:12:35;;;;;;;0.20;0.20;;;;;;;;;;5089821;28;20422;-65
2023/03/31 14:15:03;;;;;;;1.00;0.28;;;;;;;;;;5090014;28;20525;-64
2023/03/31 14:17:33;;;;;;;0.20;0.20;;;;;;;;;;5089926;28;20425;-64
2023/03/31 14:20:19;;;;;;;1.20;0.40;;;;;;;;;;5089942;28;20430;-64
2023/03/31 14:22:47;;;;;;;0.40;0.40;;;;;;;;;;5090177;28;20915;-64
2023/03/31 14:25:33;;;;;;;0.35;0.35;;;;;;;;;;5089838;28;20430;-64
2023/03/31 14:28:07;;;;;;;0.33;0.33;;;;;;;;;;5089680;28;20892;-64
2023/03/31 14:30:45;;;;;;;1.10;0.40;;;;;;;;;;5090148;28;20440;-64
2023/03/31 14:33:25;;;;;;;0.30;0.30;;;;;;;;;;5090324;28;20422;-64
2023/03/31 14:35:52;;;;;;;0.20;0.20;;;;;;;;;;5089687;28;20867;-64
2023/03/31 14:38:23;;;;;;;0.32;0.32;;;;;;;;;;5090349;28;20449;-64
2023/03/31 14:40:54;;;;;;;0.10;0.10;;;;;;;;;;5090669;28;20543;-65
2023/03/31 14:43:28;;;;;;;0.30;0.20;;;;;;;;;;5089597;28;20428;-65
2023/03/31 14:46:00;;;;;;;0.30;0.25;;;;;;;;;;5089831;28;20425;-66
2023/03/31 14:48:28;;;;;;;0.20;0.20;;;;;;;;;;5089810;28;20537;-65
2023/03/31 14:51:00;;;;;;;0.22;0.22;;;;;;;;;;5090047;28;20436;-65
2023/03/31 14:53:27;;;;;;;1.65;0.57;;;;;;;;;;5090311;28;20421;-66
2023/03/31 14:56:01;;;;;;;0.90;0.20;;;;;;;;;;5089241;28;20429;-66
2023/03/31 14:58:33;;;;;;;0.30;0.30;;;;;;;;;;5093130;28;20421;-65
2023/03/31 15:01:02;;;;;;;1.90;0.30;;;;;;;;;;5089901;28;20444;-66
2023/03/31 15:03:29;;;;;;;0.15;0.15;;;;;;;;;;5088925;28;20479;-67
2023/03/31 15:05:57;;;;;;;0.30;0.30;;;;;;;;;;5088178;28;20426;-67
2023/03/31 15:08:25;;;;;;;0.30;0.30;;;;;;;;;;5089794;28;20426;-67
2023/03/31 15:10:58;;;;;;;0.10;0.10;;;;;;;;;;5089823;28;20433;-66